createdAt,value
2023-01-28T00:06:09.696Z,7.65
2023-01-28T00:12:51.991Z,7.05
2023-01-28T00:19:34.489Z,9.77
2023-01-28T00:43:25.510Z,9.10
2023-01-28T00:50:08.342Z,7.03
2023-01-28T00:56:50.670Z,8.13
2023-01-28T01:03:33.058Z,8.50
2023-01-28T01:10:18.718Z,9.18
2023-01-28T01:17:01.035Z,7.25
2023-01-28T01:23:43.726Z,8.55
2023-01-28T01:30:26.037Z,7.57
2023-01-28T01:37:08.599Z,7.32
2023-01-28T01:43:54.173Z,6.55
2023-01-28T01:50:44.781Z,7.70
2023-01-28T01:57:32.467Z,7.72
2023-01-28T02:04:27.425Z,6.68
2023-01-28T02:11:11.158Z,7.25
2023-01-28T02:17:56.711Z,6.45
2023-01-28T02:24:53.733Z,5.47
2023-01-28T02:31:55.951Z,5.97
2023-01-28T02:38:45.954Z,5.57
2023-01-28T02:45:52.261Z,4.53
2023-01-28T02:53:05.825Z,4.40
2023-01-28T03:00:12.275Z,4.65
2023-01-28T03:06:59.811Z,5.93
2023-01-28T03:14:02.734Z,6.38
2023-01-28T03:21:22.719Z,7.03
2023-01-28T03:28:27.455Z,6.72
2023-01-28T03:35:34.140Z,6.28
2023-01-28T03:42:18.552Z,6.25
2023-01-28T03:49:09.754Z,6.90
2023-01-28T03:55:54.016Z,6.82
2023-01-28T04:02:39.905Z,7.68
2023-01-28T04:09:25.314Z,9.20
2023-01-28T04:16:21.454Z,8.95
2023-01-28T04:23:04.709Z,10.82
2023-01-28T04:29:47.142Z,10.13
2023-01-28T04:36:50.557Z,12.00
2023-01-28T04:43:51.305Z,11.40
2023-01-28T04:50:48.056Z,10.93
2023-01-28T04:57:35.374Z,11.27
2023-01-28T05:04:17.763Z,10.95
2023-01-28T05:11:00.174Z,12.15
2023-01-28T05:17:44.089Z,12.93
2023-01-28T05:24:28.249Z,12.27
2023-01-28T05:31:11.443Z,10.07
2023-01-28T05:37:54.079Z,12.45
2023-01-28T05:44:37.856Z,12.55
2023-01-28T05:51:43.375Z,12.55
2023-01-28T05:58:30.841Z,11.55
2023-01-28T06:05:15.051Z,11.38
2023-01-28T06:11:57.920Z,12.25
2023-01-28T06:18:44.608Z,12.98
2023-01-28T06:25:27.061Z,11.75
2023-01-28T06:32:14.676Z,11.60
2023-01-28T06:38:57.325Z,10.48
2023-01-28T06:45:39.596Z,10.13
2023-01-28T06:52:21.897Z,13.27
2023-01-28T06:59:04.270Z,12.05
2023-01-28T07:05:46.593Z,8.82
2023-01-28T07:12:29.194Z,10.25
2023-01-28T07:19:11.499Z,11.82
2023-01-28T07:25:54.049Z,12.93
2023-01-28T07:32:36.329Z,9.70
2023-01-28T07:39:18.593Z,14.93
2023-01-28T07:46:01.992Z,10.93
2023-01-28T07:52:45.725Z,12.45
2023-01-28T07:59:28.201Z,12.63
2023-01-28T08:06:11.662Z,11.15
2023-01-28T08:12:55.695Z,11.43
2023-01-28T08:19:37.980Z,14.60
2023-01-28T08:26:20.336Z,10.88
2023-01-28T08:33:02.598Z,12.20
2023-01-28T08:39:46.315Z,11.43
2023-01-28T08:46:28.866Z,12.50
2023-01-28T08:53:14.414Z,10.45
2023-01-28T08:59:56.723Z,11.85
2023-01-28T09:06:39.019Z,12.27
2023-01-28T09:13:21.413Z,14.30
2023-01-28T09:20:04.587Z,13.45
2023-01-28T09:26:49.443Z,14.52
2023-01-28T09:33:32.179Z,15.10
2023-01-28T09:40:30.661Z,14.45
2023-01-28T09:47:44.637Z,17.30
2023-01-28T09:54:49.794Z,15.55
2023-01-28T10:01:46.386Z,16.67
2023-01-28T10:08:50.581Z,14.50
2023-01-28T10:15:51.666Z,18.80
2023-01-28T10:23:06.261Z,14.95
2023-01-28T10:29:50.324Z,14.93
2023-01-28T10:36:33.031Z,15.00
2023-01-28T10:43:22.891Z,14.60
2023-01-28T10:50:06.007Z,16.05
2023-01-28T10:56:51.907Z,18.45
2023-01-28T11:03:37.311Z,16.65
2023-01-28T11:10:26.684Z,18.63
2023-01-28T11:17:18.157Z,17.67
2023-01-28T11:24:04.957Z,15.93
2023-01-28T11:30:53.092Z,15.88
2023-01-28T11:37:35.716Z,18.02
2023-01-28T11:44:21.469Z,16.30
2023-01-28T11:51:29.529Z,14.88
2023-01-28T11:58:33.519Z,18.55
2023-01-28T12:05:49.628Z,16.95
2023-01-28T12:13:33.251Z,16.08
2023-01-28T12:20:42.288Z,16.75
2023-01-28T12:27:44.140Z,18.20
2023-01-28T12:34:44.420Z,16.45
2023-01-28T12:41:36.494Z,22.08
2023-01-28T12:48:37.160Z,16.35
2023-01-28T12:55:48.567Z,15.57
2023-01-28T13:02:39.844Z,12.13
2023-01-28T13:09:26.759Z,8.45
2023-01-28T13:16:11.006Z,8.88
2023-01-28T13:23:01.985Z,10.23
2023-01-28T13:29:48.704Z,12.27
2023-01-28T13:36:39.413Z,12.40
2023-01-28T13:43:37.331Z,13.60
2023-01-28T13:50:25.524Z,10.00
2023-01-28T13:57:42.071Z,12.50
2023-01-28T14:04:52.505Z,10.10
2023-01-28T14:12:23.171Z,11.35
2023-01-28T14:19:06.442Z,13.95
2023-01-28T14:25:54.815Z,10.70
2023-01-28T14:32:43.951Z,12.57
2023-01-28T14:39:28.835Z,11.18
2023-01-28T14:46:41.825Z,9.10
2023-01-28T14:53:51.680Z,11.02
2023-01-28T15:00:35.765Z,9.80
2023-01-28T15:07:24.268Z,7.68
2023-01-28T15:14:16.264Z,10.70
2023-01-28T15:20:59.838Z,13.82
2023-01-28T15:27:42.764Z,9.48
2023-01-28T15:34:30.165Z,9.90
2023-01-28T15:41:12.610Z,10.25
2023-01-28T15:48:05.265Z,8.95
2023-01-28T15:54:52.178Z,10.65
2023-01-28T16:01:36.593Z,6.90
2023-01-28T16:08:34.056Z,11.02
2023-01-28T16:15:20.770Z,8.52
2023-01-28T16:22:03.885Z,21.13
2023-01-28T16:28:46.206Z,8.00
2023-01-28T16:35:47.324Z,6.25
2023-01-28T16:42:33.078Z,14.27
2023-01-28T16:49:15.357Z,6.55
2023-01-28T16:55:57.604Z,10.30
2023-01-28T17:02:40.059Z,7.32
2023-01-28T17:09:24.053Z,9.50
2023-01-28T17:16:07.361Z,6.53
2023-01-28T17:22:49.689Z,7.82
2023-01-28T17:29:32.080Z,8.73
2023-01-28T17:36:14.482Z,7.35
2023-01-28T17:42:56.894Z,7.00
2023-01-28T17:49:39.531Z,8.57
2023-01-28T17:56:25.655Z,11.02
2023-01-28T18:03:14.296Z,9.70
2023-01-28T18:09:56.807Z,7.47
2023-01-28T18:16:39.259Z,8.30
2023-01-28T18:23:21.561Z,8.85
2023-01-28T18:30:04.453Z,8.63
2023-01-28T18:36:46.987Z,15.23
2023-01-28T18:43:32.456Z,9.75
2023-01-28T18:50:14.859Z,10.60
2023-01-28T18:56:57.243Z,14.13
2023-01-28T19:03:39.516Z,11.70
2023-01-28T19:10:23.827Z,14.45
2023-01-28T19:17:06.258Z,9.23
2023-01-28T19:23:53.758Z,15.30
2023-01-28T19:30:37.091Z,25.90
2023-01-28T19:37:19.433Z,9.88
2023-01-28T19:44:01.905Z,11.70
2023-01-28T19:50:44.599Z,11.30
2023-01-28T19:57:27.071Z,11.75
2023-01-28T20:04:09.367Z,20.00
2023-01-28T20:10:51.608Z,8.35
2023-01-28T20:17:33.981Z,11.27
2023-01-28T20:24:16.409Z,13.07
2023-01-28T20:31:05.230Z,11.23
2023-01-28T20:37:49.747Z,11.73
2023-01-28T20:44:32.275Z,10.60
2023-01-28T20:51:17.085Z,15.63
2023-01-28T20:57:59.455Z,12.10
2023-01-28T21:04:41.972Z,11.20
2023-01-28T21:11:25.775Z,10.85
2023-01-28T21:18:08.575Z,8.98
2023-01-28T21:24:51.133Z,10.15
2023-01-28T21:31:33.457Z,9.88
2023-01-28T21:38:15.772Z,7.95
2023-01-28T21:44:58.195Z,8.70
2023-01-28T21:51:47.306Z,9.30
2023-01-28T21:58:48.275Z,8.40
2023-01-28T22:05:30.547Z,9.13
2023-01-28T22:12:15.160Z,10.75
2023-01-28T22:18:57.699Z,9.00
2023-01-28T22:25:39.980Z,10.35
2023-01-28T22:32:22.321Z,8.70
2023-01-28T22:39:07.226Z,9.48
2023-01-28T22:45:58.217Z,7.70
2023-01-28T22:52:40.574Z,9.07
2023-01-28T22:59:22.929Z,8.65
2023-01-28T23:06:05.844Z,7.30
2023-01-28T23:12:53.271Z,7.30
2023-01-28T23:19:54.599Z,7.90
2023-01-28T23:26:36.877Z,9.30
2023-01-28T23:33:19.400Z,6.85
2023-01-28T23:40:02.224Z,7.15
2023-01-28T23:46:44.588Z,7.95
2023-01-28T23:53:27.107Z,7.50
